sensor_id;sensor_type;location;lat;lon;timestamp;pressure;altitude;pressure_sealevel;temperature;humidity
3142;BME280;1581;51.568;6.998;2022-12-07T00:01:50;100982.88;;;6.06;100.00
3142;BME280;1581;51.568;6.998;2022-12-07T00:04:18;100978.25;;;6.08;100.00
3142;BME280;1581;51.568;6.998;2022-12-07T00:06:51;100987.44;;;6.21;100.00
3142;BME280;1581;51.568;6.998;2022-12-07T00:09:22;100982.63;;;6.17;100.00
3142;BME280;1581;51.568;6.998;2022-12-07T00:11:52;100992.28;;;6.26;100.00
3142;BME280;1581;51.568;6.998;2022-12-07T00:14:21;100982.41;;;6.36;100.00
3142;BME280;1581;51.568;6.998;2022-12-07T00:16:51;100973.25;;;6.05;100.00
3142;BME280;1581;51.568;6.998;2022-12-07T00:19:22;100973.69;;;6.18;100.00
3142;BME280;1581;51.568;6.998;2022-12-07T00:21:52;100972.72;;;6.19;100.00
3142;BME280;1581;51.568;6.998;2022-12-07T00:24:22;100975.16;;;6.38;100.00
3142;BME280;1581;51.568;6.998;2022-12-07T00:26:50;100981.81;;;6.16;100.00
3142;BME280;1581;51.568;6.998;2022-12-07T00:29:21;100971.72;;;6.20;100.00
3142;BME280;1581;51.568;6.998;2022-12-07T00:31:50;100968.50;;;6.34;100.00
3142;BME280;1581;51.568;6.998;2022-12-07T00:34:21;100966.78;;;6.25;100.00
3142;BME280;1581;51.568;6.998;2022-12-07T00:36:50;100966.28;;;6.21;100.00
3142;BME280;1581;51.568;6.998;2022-12-07T00:39:21;100966.28;;;6.21;100.00
3142;BME280;1581;51.568;6.998;2022-12-07T00:41:49;100973.19;;;6.40;100.00
3142;BME280;1581;51.568;6.998;2022-12-07T00:44:18;100967.47;;;6.52;100.00
3142;BME280;1581;51.568;6.998;2022-12-07T00:46:46;100959.94;;;6.65;100.00
3142;BME280;1581;51.568;6.998;2022-12-07T00:49:15;100964.34;;;6.57;100.00
3142;BME280;1581;51.568;6.998;2022-12-07T00:51:48;100963.44;;;6.74;100.00
3142;BME280;1581;51.568;6.998;2022-12-07T00:54:18;100976.91;;;6.55;100.00
3142;BME280;1581;51.568;6.998;2022-12-07T00:56:48;100964.34;;;6.57;100.00
3142;BME280;1581;51.568;6.998;2022-12-07T00:59:18;100958.50;;;6.79;100.00
3142;BME280;1581;51.568;6.998;2022-12-07T01:01:47;100950.56;;;6.45;100.00
3142;BME280;1581;51.568;6.998;2022-12-07T01:04:16;100952.22;;;6.80;100.00
3142;BME280;1581;51.568;6.998;2022-12-07T01:06:45;100952.81;;;6.66;100.00
3142;BME280;1581;51.568;6.998;2022-12-07T01:09:14;100956.44;;;6.65;100.00
3142;BME280;1581;51.568;6.998;2022-12-07T01:11:42;100946.00;;;6.63;100.00
3142;BME280;1581;51.568;6.998;2022-12-07T01:14:12;100949.25;;;6.82;100.00
3142;BME280;1581;51.568;6.998;2022-12-07T01:16:43;100942.84;;;6.60;100.00
3142;BME280;1581;51.568;6.998;2022-12-07T01:19:12;100939.09;;;6.70;100.00
3142;BME280;1581;51.568;6.998;2022-12-07T01:21:41;100946.72;;;6.40;100.00
3142;BME280;1581;51.568;6.998;2022-12-07T01:24:11;100945.84;;;6.31;100.00
3142;BME280;1581;51.568;6.998;2022-12-07T01:26:40;100951.34;;;6.71;100.00
3142;BME280;1581;51.568;6.998;2022-12-07T01:29:11;100959.25;;;6.63;100.00
3142;BME280;1581;51.568;6.998;2022-12-07T01:31:40;100954.16;;;6.36;100.00
3142;BME280;1581;51.568;6.998;2022-12-07T01:34:10;100951.94;;;6.57;100.00
3142;BME280;1581;51.568;6.998;2022-12-07T01:36:39;100954.19;;;6.19;100.00
3142;BME280;1581;51.568;6.998;2022-12-07T01:39:20;100951.50;;;6.70;100.00
3142;BME280;1581;51.568;6.998;2022-12-07T01:41:57;100950.97;;;6.58;100.00
3142;BME280;1581;51.568;6.998;2022-12-07T01:47:47;100956.91;;;6.60;100.00
3142;BME280;1581;51.568;6.998;2022-12-07T01:50:34;100957.34;;;6.48;100.00
3142;BME280;1581;51.568;6.998;2022-12-07T01:53:15;100953.63;;;6.33;100.00
3142;BME280;1581;51.568;6.998;2022-12-07T01:55:49;100961.19;;;6.53;100.00
3142;BME280;1581;51.568;6.998;2022-12-07T01:58:20;100965.97;;;6.50;100.00
3142;BME280;1581;51.568;6.998;2022-12-07T02:00:51;100963.22;;;6.34;100.00
3142;BME280;1581;51.568;6.998;2022-12-07T02:03:25;100955.69;;;6.21;100.00
3142;BME280;1581;51.568;6.998;2022-12-07T02:05:56;100953.25;;;6.28;100.00
3142;BME280;1581;51.568;6.998;2022-12-07T02:08:26;100943.19;;;6.31;100.00
3142;BME280;1581;51.568;6.998;2022-12-07T02:10:55;100949.00;;;6.35;100.00
3142;BME280;1581;51.568;6.998;2022-12-07T02:13:26;100942.31;;;6.23;100.00
3142;BME280;1581;51.568;6.998;2022-12-07T02:16:16;100946.72;;;6.40;100.00
3142;BME280;1581;51.568;6.998;2022-12-07T02:18:58;100939.69;;;6.23;100.00
3142;BME280;1581;51.568;6.998;2022-12-07T02:21:38;100938.63;;;6.16;100.00
3142;BME280;1581;51.568;6.998;2022-12-07T02:24:44;100943.69;;;6.35;100.00
3142;BME280;1581;51.568;6.998;2022-12-07T02:27:40;100942.41;;;6.13;100.00
3142;BME280;1581;51.568;6.998;2022-12-07T02:30:13;100944.59;;;6.18;100.00
3142;BME280;1581;51.568;6.998;2022-12-07T02:32:49;100944.97;;;6.23;100.00
3142;BME280;1581;51.568;6.998;2022-12-07T02:35:23;100944.34;;;6.29;100.00
3142;BME280;1581;51.568;6.998;2022-12-07T02:38:03;100947.31;;;6.34;100.00
3142;BME280;1581;51.568;6.998;2022-12-07T02:40:40;100946.81;;;6.05;100.00
3142;BME280;1581;51.568;6.998;2022-12-07T02:43:15;100945.34;;;5.68;100.00
3142;BME280;1581;51.568;6.998;2022-12-07T02:45:49;100945.66;;;5.47;100.00
3142;BME280;1581;51.568;6.998;2022-12-07T02:48:23;100944.28;;;5.61;100.00
3142;BME280;1581;51.568;6.998;2022-12-07T02:50:55;100947.44;;;5.64;100.00
3142;BME280;1581;51.568;6.998;2022-12-07T02:53:37;100941.41;;;5.72;100.00
3142;BME280;1581;51.568;6.998;2022-12-07T02:56:13;100938.94;;;5.53;100.00
3142;BME280;1581;51.568;6.998;2022-12-07T02:58:56;100946.03;;;5.35;100.00
3142;BME280;1581;51.568;6.998;2022-12-07T03:01:39;100945.03;;;5.18;100.00
3142;BME280;1581;51.568;6.998;2022-12-07T03:04:23;100940.44;;;5.20;100.00
3142;BME280;1581;51.568;6.998;2022-12-07T03:07:04;100944.31;;;5.43;100.00
3142;BME280;1581;51.568;6.998;2022-12-07T03:09:41;100943.44;;;5.25;100.00
3142;BME280;1581;51.568;6.998;2022-12-07T03:12:16;100948.22;;;5.39;100.00
3142;BME280;1581;51.568;6.998;2022-12-07T03:14:52;100943.22;;;5.36;100.00
3142;BME280;1581;51.568;6.998;2022-12-07T03:17:27;100943.91;;;5.38;100.00
3142;BME280;1581;51.568;6.998;2022-12-07T03:20:02;100941.88;;;5.50;100.00
3142;BME280;1581;51.568;6.998;2022-12-07T03:22:33;100948.50;;;5.36;100.00
3142;BME280;1581;51.568;6.998;2022-12-07T03:25:07;100951.97;;;5.19;100.00
3142;BME280;1581;51.568;6.998;2022-12-07T03:27:39;100954.00;;;5.08;100.00
3142;BME280;1581;51.568;6.998;2022-12-07T03:30:14;100951.25;;;5.27;100.00
3142;BME280;1581;51.568;6.998;2022-12-07T03:32:48;100945.63;;;5.12;100.00
3142;BME280;1581;51.568;6.998;2022-12-07T03:35:24;100936.00;;;4.94;100.00
3142;BME280;1581;51.568;6.998;2022-12-07T03:37:59;100945.41;;;5.06;100.00
3142;BME280;1581;51.568;6.998;2022-12-07T03:40:33;100937.63;;;5.22;100.00
3142;BME280;1581;51.568;6.998;2022-12-07T03:43:04;100929.63;;;5.14;100.00
3142;BME280;1581;51.568;6.998;2022-12-07T03:45:40;100927.69;;;5.33;100.00
3142;BME280;1581;51.568;6.998;2022-12-07T03:48:20;100937.03;;;5.10;100.00
3142;BME280;1581;51.568;6.998;2022-12-07T03:50:55;100936.66;;;5.23;100.00
3142;BME280;1581;51.568;6.998;2022-12-07T03:53:32;100935.28;;;5.36;100.00
3142;BME280;1581;51.568;6.998;2022-12-07T03:56:03;100927.06;;;5.39;100.00
3142;BME280;1581;51.568;6.998;2022-12-07T03:58:33;100928.16;;;5.29;100.00
3142;BME280;1581;51.568;6.998;2022-12-07T04:01:02;100932.69;;;5.19;100.00
3142;BME280;1581;51.568;6.998;2022-12-07T04:03:32;100932.44;;;5.30;100.00
3142;BME280;1581;51.568;6.998;2022-12-07T04:06:02;100931.69;;;5.37;100.00
3142;BME280;1581;51.568;6.998;2022-12-07T04:08:30;100937.63;;;5.22;100.00
3142;BME280;1581;51.568;6.998;2022-12-07T04:11:01;100936.66;;;5.40;100.00
3142;BME280;1581;51.568;6.998;2022-12-07T04:13:30;100930.03;;;5.19;100.00
3142;BME280;1581;51.568;6.998;2022-12-07T04:16:21;100935.13;;;5.03;100.00
3142;BME280;1581;51.568;6.998;2022-12-07T04:18:53;100936.59;;;5.15;100.00
3142;BME280;1581;51.568;6.998;2022-12-07T04:21:24;100933.81;;;4.90;100.00
3142;BME280;1581;51.568;6.998;2022-12-07T04:23:53;100929.84;;;5.03;100.00
3142;BME280;1581;51.568;6.998;2022-12-07T04:26:22;100934.34;;;4.93;100.00
3142;BME280;1581;51.568;6.998;2022-12-07T04:28:51;100938.41;;;4.88;100.00
3142;BME280;1581;51.568;6.998;2022-12-07T04:31:20;100928.19;;;5.02;100.00
3142;BME280;1581;51.568;6.998;2022-12-07T04:33:50;100933.00;;;4.62;100.00
3142;BME280;1581;51.568;6.998;2022-12-07T04:36:19;100923.34;;;4.98;100.00
3142;BME280;1581;51.568;6.998;2022-12-07T04:38:49;100934.47;;;4.74;100.00
3142;BME280;1581;51.568;6.998;2022-12-07T04:41:18;100926.44;;;4.66;100.00
3142;BME280;1581;51.568;6.998;2022-12-07T04:43:54;100927.22;;;4.76;100.00
3142;BME280;1581;51.568;6.998;2022-12-07T04:46:24;100928.66;;;4.71;100.00
3142;BME280;1581;51.568;6.998;2022-12-07T04:48:56;100926.88;;;4.89;100.00
3142;BME280;1581;51.568;6.998;2022-12-07T04:51:28;100929.06;;;4.93;100.00
3142;BME280;1581;51.568;6.998;2022-12-07T04:53:57;100931.78;;;4.84;100.00
3142;BME280;1581;51.568;6.998;2022-12-07T04:56:27;100935.53;;;4.81;100.00
3142;BME280;1581;51.568;6.998;2022-12-07T04:58:57;100926.72;;;4.90;100.00
3142;BME280;1581;51.568;6.998;2022-12-07T05:01:25;100922.00;;;5.11;100.00
3142;BME280;1581;51.568;6.998;2022-12-07T05:03:55;100928.72;;;5.06;100.00
3142;BME280;1581;51.568;6.998;2022-12-07T05:06:24;100914.16;;;4.75;100.00
3142;BME280;1581;51.568;6.998;2022-12-07T05:08:53;100918.28;;;4.60;100.00
3142;BME280;1581;51.568;6.998;2022-12-07T05:11:21;100909.38;;;4.88;100.00
3142;BME280;1581;51.568;6.998;2022-12-07T05:14:13;100915.81;;;4.58;100.00
3142;BME280;1581;51.568;6.998;2022-12-07T05:16:44;100916.59;;;4.68;100.00
3142;BME280;1581;51.568;6.998;2022-12-07T05:19:23;100916.13;;;4.73;100.00
3142;BME280;1581;51.568;6.998;2022-12-07T05:21:57;100919.28;;;5.03;100.00
3142;BME280;1581;51.568;6.998;2022-12-07T05:24:26;100922.84;;;5.11;100.00
3142;BME280;1581;51.568;6.998;2022-12-07T05:26:55;100921.72;;;5.14;100.00
3142;BME280;1581;51.568;6.998;2022-12-07T05:29:23;100921.38;;;5.00;100.00
3142;BME280;1581;51.568;6.998;2022-12-07T05:31:52;100924.84;;;5.00;100.00
3142;BME280;1581;51.568;6.998;2022-12-07T05:34:23;100927.47;;;4.83;100.00
3142;BME280;1581;51.568;6.998;2022-12-07T05:36:52;100926.75;;;5.07;100.00
3142;BME280;1581;51.568;6.998;2022-12-07T05:39:20;100926.69;;;4.73;100.00
3142;BME280;1581;51.568;6.998;2022-12-07T05:41:48;100930.44;;;4.70;100.00
3142;BME280;1581;51.568;6.998;2022-12-07T05:44:34;100917.78;;;5.01;100.00
3142;BME280;1581;51.568;6.998;2022-12-07T05:47:03;100916.91;;;4.83;100.00
3142;BME280;1581;51.568;6.998;2022-12-07T05:49:33;100915.19;;;4.91;100.00
3142;BME280;1581;51.568;6.998;2022-12-07T05:52:03;100914.31;;;5.17;100.00
3142;BME280;1581;51.568;6.998;2022-12-07T05:54:31;100912.41;;;4.93;100.00
3142;BME280;1581;51.568;6.998;2022-12-07T05:57:01;100910.63;;;5.10;100.00
3142;BME280;1581;51.568;6.998;2022-12-07T05:59:29;100917.69;;;5.10;100.00
3142;BME280;1581;51.568;6.998;2022-12-07T06:02:00;100909.84;;;5.01;100.00
3142;BME280;1581;51.568;6.998;2022-12-07T06:04:34;100916.25;;;5.15;100.00
3142;BME280;1581;51.568;6.998;2022-12-07T06:07:03;100910.44;;;4.95;100.00
3142;BME280;1581;51.568;6.998;2022-12-07T06:09:33;100915.44;;;5.15;100.00
3142;BME280;1581;51.568;6.998;2022-12-07T06:12:03;100912.72;;;5.24;100.00
3142;BME280;1581;51.568;6.998;2022-12-07T06:14:50;100908.44;;;5.06;100.00
3142;BME280;1581;51.568;6.998;2022-12-07T06:17:19;100909.56;;;5.04;100.00
3142;BME280;1581;51.568;6.998;2022-12-07T06:19:49;100919.09;;;5.31;100.00
3142;BME280;1581;51.568;6.998;2022-12-07T06:22:19;100923.75;;;5.37;100.00
3142;BME280;1581;51.568;6.998;2022-12-07T06:24:48;100927.22;;;5.20;100.00
3142;BME280;1581;51.568;6.998;2022-12-07T06:27:18;100915.00;;;5.19;100.00
3142;BME280;1581;51.568;6.998;2022-12-07T06:29:46;100920.13;;;5.04;100.00
3142;BME280;1581;51.568;6.998;2022-12-07T06:32:15;100916.34;;;4.79;100.00
3142;BME280;1581;51.568;6.998;2022-12-07T06:34:44;100918.50;;;4.93;100.00
3142;BME280;1581;51.568;6.998;2022-12-07T06:37:15;100920.41;;;5.01;100.00
3142;BME280;1581;51.568;6.998;2022-12-07T06:39:43;100916.81;;;4.75;100.00
3142;BME280;1581;51.568;6.998;2022-12-07T06:42:12;100919.06;;;4.70;100.00
3142;BME280;1581;51.568;6.998;2022-12-07T06:44:41;100917.50;;;4.77;100.00
3142;BME280;1581;51.568;6.998;2022-12-07T06:47:09;100918.78;;;4.73;100.00
3142;BME280;1581;51.568;6.998;2022-12-07T06:49:38;100915.00;;;4.75;100.00
3142;BME280;1581;51.568;6.998;2022-12-07T06:52:06;100916.09;;;4.55;100.00
3142;BME280;1581;51.568;6.998;2022-12-07T06:54:37;100919.78;;;4.62;100.00
3142;BME280;1581;51.568;6.998;2022-12-07T06:57:06;100923.25;;;4.90;100.00
3142;BME280;1581;51.568;6.998;2022-12-07T07:00:06;100931.00;;;4.74;100.00
3142;BME280;1581;51.568;6.998;2022-12-07T07:02:34;100927.47;;;4.83;100.00
3142;BME280;1581;51.568;6.998;2022-12-07T07:05:03;100923.38;;;4.71;100.00
3142;BME280;1581;51.568;6.998;2022-12-07T07:07:32;100930.84;;;4.48;100.00
3142;BME280;1581;51.568;6.998;2022-12-07T07:10:08;100934.81;;;4.62;100.00
3142;BME280;1581;51.568;6.998;2022-12-07T07:12:38;100931.13;;;4.45;100.00
3142;BME280;1581;51.568;6.998;2022-12-07T07:15:09;100938.72;;;4.58;100.00
3142;BME280;1581;51.568;6.998;2022-12-07T07:17:40;100937.78;;;4.76;100.00
3142;BME280;1581;51.568;6.998;2022-12-07T07:20:14;100935.06;;;4.68;100.00
3142;BME280;1581;51.568;6.998;2022-12-07T07:22:48;100929.81;;;4.59;100.00
3142;BME280;1581;51.568;6.998;2022-12-07T07:25:18;100943.63;;;4.70;100.00
3142;BME280;1581;51.568;6.998;2022-12-07T07:27:47;100935.88;;;4.69;100.00
3142;BME280;1581;51.568;6.998;2022-12-07T07:30:19;100937.72;;;4.86;100.00
3142;BME280;1581;51.568;6.998;2022-12-07T07:32:49;100944.28;;;4.82;100.00
3142;BME280;1581;51.568;6.998;2022-12-07T07:35:25;100931.81;;;4.74;100.00
3142;BME280;1581;51.568;6.998;2022-12-07T07:37:55;100932.34;;;4.51;100.00
3142;BME280;1581;51.568;6.998;2022-12-07T07:40:27;100943.06;;;4.76;100.00
3142;BME280;1581;51.568;6.998;2022-12-07T07:42:58;100938.56;;;4.86;100.00
3142;BME280;1581;51.568;6.998;2022-12-07T07:45:27;100941.34;;;5.11;100.00
3142;BME280;1581;51.568;6.998;2022-12-07T07:47:56;100948.84;;;5.07;100.00
3142;BME280;1581;51.568;6.998;2022-12-07T07:50:24;100937.25;;;5.17;100.00
3142;BME280;1581;51.568;6.998;2022-12-07T07:52:52;100942.34;;;5.01;100.00
3142;BME280;1581;51.568;6.998;2022-12-07T07:55:28;100938.34;;;4.70;100.00
3142;BME280;1581;51.568;6.998;2022-12-07T07:58:06;100935.50;;;4.91;100.00
3142;BME280;1581;51.568;6.998;2022-12-07T08:00:41;100937.06;;;4.84;100.00
3142;BME280;1581;51.568;6.998;2022-12-07T08:03:09;100939.47;;;4.95;100.00
3142;BME280;1581;51.568;6.998;2022-12-07T08:05:37;100940.56;;;4.75;100.00
3142;BME280;1581;51.568;6.998;2022-12-07T08:08:05;100943.94;;;4.67;100.00
3142;BME280;1581;51.568;6.998;2022-12-07T08:10:34;100940.25;;;4.87;100.00
3142;BME280;1581;51.568;6.998;2022-12-07T08:13:03;100945.47;;;4.70;100.00
3142;BME280;1581;51.568;6.998;2022-12-07T08:15:42;100946.66;;;5.02;100.00
3142;BME280;1581;51.568;6.998;2022-12-07T08:18:11;100954.88;;;4.99;100.00
3142;BME280;1581;51.568;6.998;2022-12-07T08:20:40;100954.00;;;5.08;100.00
3142;BME280;1581;51.568;6.998;2022-12-07T08:23:09;100953.66;;;5.20;100.00
3142;BME280;1581;51.568;6.998;2022-12-07T08:25:38;100953.06;;;5.61;100.00
3142;BME280;1581;51.568;6.998;2022-12-07T08:28:06;100956.59;;;5.35;100.00
3142;BME280;1581;51.568;6.998;2022-12-07T08:30:34;100959.09;;;5.54;100.00
3142;BME280;1581;51.568;6.998;2022-12-07T08:33:02;100956.97;;;5.40;100.00
3142;BME280;1581;51.568;6.998;2022-12-07T08:35:32;100956.22;;;5.47;100.00
3142;BME280;1581;51.568;6.998;2022-12-07T08:38:00;100960.16;;;5.26;100.00
3142;BME280;1581;51.568;6.998;2022-12-07T08:40:28;100962.47;;;5.46;100.00
3142;BME280;1581;51.568;6.998;2022-12-07T08:43:00;100964.41;;;5.09;100.00
3142;BME280;1581;51.568;6.998;2022-12-07T08:45:28;100969.00;;;5.07;100.00
3142;BME280;1581;51.568;6.998;2022-12-07T08:48:01;100965.72;;;5.23;100.00
3142;BME280;1581;51.568;6.998;2022-12-07T08:50:32;100970.63;;;5.18;100.00
3142;BME280;1581;51.568;6.998;2022-12-07T08:53:00;100961.41;;;5.22;100.00
3142;BME280;1581;51.568;6.998;2022-12-07T08:55:29;100965.31;;;5.01;100.00
3142;BME280;1581;51.568;6.998;2022-12-07T08:57:59;100969.22;;;5.23;100.00
3142;BME280;1581;51.568;6.998;2022-12-07T09:00:27;100968.97;;;5.17;100.00
3142;BME280;1581;51.568;6.998;2022-12-07T09:02:55;100964.22;;;5.20;100.00
3142;BME280;1581;51.568;6.998;2022-12-07T09:05:23;100965.59;;;5.59;100.00
3142;BME280;1581;51.568;6.998;2022-12-07T09:07:54;100966.66;;;5.49;100.00
3142;BME280;1581;51.568;6.998;2022-12-07T09:10:23;100966.75;;;6.17;100.00
3142;BME280;1581;51.568;6.998;2022-12-07T09:12:50;100970.00;;;5.86;100.00
3142;BME280;1581;51.568;6.998;2022-12-07T09:15:19;100968.69;;;5.90;100.00
3142;BME280;1581;51.568;6.998;2022-12-07T09:17:47;100968.66;;;6.07;100.00
3142;BME280;1581;51.568;6.998;2022-12-07T09:20:15;100975.56;;;6.00;100.00
3142;BME280;1581;51.568;6.998;2022-12-07T09:22:42;100974.22;;;6.21;100.00
3142;BME280;1581;51.568;6.998;2022-12-07T09:25:10;100975.84;;;6.40;100.00
3142;BME280;1581;51.568;6.998;2022-12-07T09:27:38;100970.44;;;5.98;100.00
3142;BME280;1581;51.568;6.998;2022-12-07T09:30:08;100968.50;;;6.34;100.00
3142;BME280;1581;51.568;6.998;2022-12-07T09:32:38;100966.19;;;6.31;100.00
3142;BME280;1581;51.568;6.998;2022-12-07T09:35:07;100965.06;;;6.16;100.00
3142;BME280;1581;51.568;6.998;2022-12-07T09:37:34;100963.94;;;5.93;100.00
3142;BME280;1581;51.568;6.998;2022-12-07T09:40:04;100960.72;;;6.07;100.00
3142;BME280;1581;51.568;6.998;2022-12-07T09:42:36;100959.25;;;5.87;100.00
3142;BME280;1581;51.568;6.998;2022-12-07T09:45:07;100970.47;;;6.57;100.00
3142;BME280;1581;51.568;6.998;2022-12-07T09:47:40;100969.44;;;6.50;100.00
3142;BME280;1581;51.568;6.998;2022-12-07T09:50:14;100960.16;;;6.80;100.00
3142;BME280;1581;51.568;6.998;2022-12-07T09:52:44;100952.91;;;6.89;100.00
3142;BME280;1581;51.568;6.998;2022-12-07T09:55:16;100953.28;;;6.61;100.00
3142;BME280;1581;51.568;6.998;2022-12-07T09:57:48;100957.59;;;6.11;100.00
3142;BME280;1581;51.568;6.998;2022-12-07T10:00:19;100958.25;;;6.05;100.00
3142;BME280;1581;51.568;6.998;2022-12-07T10:02:53;100949.16;;;6.33;100.00
3142;BME280;1581;51.568;6.998;2022-12-07T10:05:32;100953.44;;;6.60;100.00
3142;BME280;1581;51.568;6.998;2022-12-07T10:08:13;100951.53;;;6.44;100.00
3142;BME280;1581;51.568;6.998;2022-12-07T10:10:45;100949.69;;;6.70;100.00
3142;BME280;1581;51.568;6.998;2022-12-07T10:13:15;100957.03;;;6.84;100.00
3142;BME280;1581;51.568;6.998;2022-12-07T10:15:49;100953.91;;;6.88;100.00
3142;BME280;1581;51.568;6.998;2022-12-07T10:18:31;100953.47;;;6.68;100.00
3142;BME280;1581;51.568;6.998;2022-12-07T10:21:13;100962.81;;;6.46;100.00
3142;BME280;1581;51.568;6.998;2022-12-07T10:23:58;100947.09;;;6.78;100.00
3142;BME280;1581;51.568;6.998;2022-12-07T10:26:33;100941.75;;;7.19;100.00
3142;BME280;1581;51.568;6.998;2022-12-07T10:29:14;100941.53;;;6.97;100.00
3142;BME280;1581;51.568;6.998;2022-12-07T10:31:44;100938.25;;;7.19;100.00
3142;BME280;1581;51.568;6.998;2022-12-07T10:34:23;100931.81;;;7.13;100.00
3142;BME280;1581;51.568;6.998;2022-12-07T10:36:51;100927.44;;;7.04;100.00
3142;BME280;1581;51.568;6.998;2022-12-07T10:39:22;100927.34;;;7.22;100.00
3142;BME280;1581;51.568;6.998;2022-12-07T10:41:58;100928.22;;;7.86;100.00
3142;BME280;1581;51.568;6.998;2022-12-07T10:44:27;100928.88;;;7.40;100.00
3142;BME280;1581;51.568;6.998;2022-12-07T10:50:23;100917.28;;;7.73;100.00
3142;BME280;1581;51.568;6.998;2022-12-07T10:59:40;100902.94;;;8.38;100.00
3142;BME280;1581;51.568;6.998;2022-12-07T11:02:25;100901.34;;;8.67;100.00
3142;BME280;1581;51.568;6.998;2022-12-07T11:05:10;100904.06;;;8.51;100.00
3142;BME280;1581;51.568;6.998;2022-12-07T11:07:54;100906.78;;;8.81;100.00
3142;BME280;1581;51.568;6.998;2022-12-07T11:10:33;100912.88;;;8.52;100.00
3142;BME280;1581;51.568;6.998;2022-12-07T11:13:35;100903.09;;;8.44;100.00
3142;BME280;1581;51.568;6.998;2022-12-07T11:16:21;100894.91;;;8.61;100.00
3142;BME280;1581;51.568;6.998;2022-12-07T11:19:28;100890.63;;;8.45;100.00
3142;BME280;1581;51.568;6.998;2022-12-07T11:22:06;100888.50;;;8.78;100.00
3142;BME280;1581;51.568;6.998;2022-12-07T11:25:00;100892.44;;;8.90;100.00
3142;BME280;1581;51.568;6.998;2022-12-07T11:27:46;100879.91;;;8.30;100.00
3142;BME280;1581;51.568;6.998;2022-12-07T11:30:20;100886.75;;;7.85;100.00
3142;BME280;1581;51.568;6.998;2022-12-07T11:33:07;100879.44;;;8.19;100.00
3142;BME280;1581;51.568;6.998;2022-12-07T11:35:46;100872.97;;;8.21;100.00
3142;BME280;1581;51.568;6.998;2022-12-07T11:38:21;100870.47;;;8.20;100.00
3142;BME280;1581;51.568;6.998;2022-12-07T11:40:55;100871.44;;;8.27;100.00
3142;BME280;1581;51.568;6.998;2022-12-07T11:43:53;100871.28;;;8.36;100.00
3142;BME280;1581;51.568;6.998;2022-12-07T11:46:48;100871.03;;;8.84;100.00
3142;BME280;1581;51.568;6.998;2022-12-07T11:49:41;100868.81;;;8.95;100.00
3142;BME280;1581;51.568;6.998;2022-12-07T11:52:21;100870.31;;;8.98;100.00
3142;BME280;1581;51.568;6.998;2022-12-07T11:54:52;100866.88;;;9.12;100.00
3142;BME280;1581;51.568;6.998;2022-12-07T11:57:32;100867.66;;;8.98;100.00
3142;BME280;1581;51.568;6.998;2022-12-07T12:00:12;100866.66;;;8.22;100.00
3142;BME280;1581;51.568;6.998;2022-12-07T12:02:48;100865.16;;;8.28;100.00
3142;BME280;1581;51.568;6.998;2022-12-07T12:05:20;100861.84;;;8.94;100.00
3142;BME280;1581;51.568;6.998;2022-12-07T12:07:54;100856.44;;;9.10;100.00
3142;BME280;1581;51.568;6.998;2022-12-07T12:10:37;100854.91;;;8.85;100.00
3142;BME280;1581;51.568;6.998;2022-12-07T12:13:36;100853.25;;;8.54;100.00
3142;BME280;1581;51.568;6.998;2022-12-07T12:16:26;100859.00;;;8.65;100.00
3142;BME280;1581;51.568;6.998;2022-12-07T12:19:25;100854.84;;;9.01;100.00
3142;BME280;1581;51.568;6.998;2022-12-07T12:22:09;100854.31;;;9.06;100.00
3142;BME280;1581;51.568;6.998;2022-12-07T12:24:41;100853.56;;;8.89;100.00
3142;BME280;1581;51.568;6.998;2022-12-07T12:27:21;100850.22;;;8.27;100.00
3142;BME280;1581;51.568;6.998;2022-12-07T12:30:34;100846.56;;;8.66;100.00
3142;BME280;1581;51.568;6.998;2022-12-07T12:33:13;100843.94;;;8.88;100.00
3142;BME280;1581;51.568;6.998;2022-12-07T12:36:43;100837.97;;;9.17;100.00
3142;BME280;1581;51.568;6.998;2022-12-07T12:39:13;100841.72;;;8.69;100.00
3142;BME280;1581;51.568;6.998;2022-12-07T12:41:55;100834.50;;;8.17;100.00
3142;BME280;1581;51.568;6.998;2022-12-07T12:45:04;100832.84;;;8.00;100.00
3142;BME280;1581;51.568;6.998;2022-12-07T12:47:58;100818.59;;;8.48;100.00
3142;BME280;1581;51.568;6.998;2022-12-07T12:50:30;100820.63;;;8.76;100.00
3142;BME280;1581;51.568;6.998;2022-12-07T12:53:17;100819.78;;;8.75;100.00
3142;BME280;1581;51.568;6.998;2022-12-07T12:56:23;100817.78;;;8.77;100.00
3142;BME280;1581;51.568;6.998;2022-12-07T12:59:23;100821.34;;;8.62;100.00
3142;BME280;1581;51.568;6.998;2022-12-07T13:01:51;100828.78;;;8.66;100.00
3142;BME280;1581;51.568;6.998;2022-12-07T13:05:00;100827.53;;;8.16;100.00
3142;BME280;1581;51.568;6.998;2022-12-07T13:07:57;100819.34;;;8.64;100.00
3142;BME280;1581;51.568;6.998;2022-12-07T13:10:44;100820.91;;;8.81;100.00
3142;BME280;1581;51.568;6.998;2022-12-07T13:13:35;100813.28;;;8.48;100.00
3142;BME280;1581;51.568;6.998;2022-12-07T13:16:40;100810.09;;;8.52;100.00
3142;BME280;1581;51.568;6.998;2022-12-07T13:19:59;100811.59;;;8.85;100.00
3142;BME280;1581;51.568;6.998;2022-12-07T13:22:47;100825.66;;;8.33;100.00
3142;BME280;1581;51.568;6.998;2022-12-07T13:25:29;100808.84;;;8.40;100.00
3142;BME280;1581;51.568;6.998;2022-12-07T13:28:08;100819.84;;;8.29;100.00
3142;BME280;1581;51.568;6.998;2022-12-07T13:30:47;100825.38;;;7.96;100.00
3142;BME280;1581;51.568;6.998;2022-12-07T13:33:19;100816.91;;;8.00;100.00
3142;BME280;1581;51.568;6.998;2022-12-07T13:35:47;100818.81;;;7.68;100.00
3142;BME280;1581;51.568;6.998;2022-12-07T13:38:25;100796.41;;;7.86;100.00
3142;BME280;1581;51.568;6.998;2022-12-07T13:41:03;100797.78;;;7.59;100.00
3142;BME280;1581;51.568;6.998;2022-12-07T13:43:44;100790.69;;;7.35;100.00
3142;BME280;1581;51.568;6.998;2022-12-07T13:46:12;100794.66;;;7.47;100.00
3142;BME280;1581;51.568;6.998;2022-12-07T13:48:46;100781.59;;;7.38;100.00
3142;BME280;1581;51.568;6.998;2022-12-07T13:51:20;100776.09;;;7.47;100.00
3142;BME280;1581;51.568;6.998;2022-12-07T13:53:50;100779.50;;;7.87;100.00
3142;BME280;1581;51.568;6.998;2022-12-07T13:56:25;100775.63;;;7.98;100.00
3142;BME280;1581;51.568;6.998;2022-12-07T13:58:55;100768.28;;;8.16;100.00
3142;BME280;1581;51.568;6.998;2022-12-07T14:01:23;100767.25;;;8.25;100.00
3142;BME280;1581;51.568;6.998;2022-12-07T14:03:51;100759.00;;;8.20;100.00